Terminal Aerodrome Forecast
Issued by NWS

Home | Current Version | Previous Version | Text Only | Print | Product List | Glossary On
Versions: 1 2 3 4 5 6 7 8 9 10 11 12 13 14 15 16
000
FTUS45 KGJT 241135 AAA
TAFDRO
TAF AMD
KDRO 241135Z 2412/2506 00000KT P6SM VCSH OVC080
      TEMPO 2412/2416 -RA SCT040 OVC080
     FM241900 25005KT P6SM VCTS BKN080CB
     FM242100 27006KT P6SM BKN090
     FM250200 32007KT P6SM SCT200
     FM250500 02004KT P6SM SCT200=

USA.gov is the U.S. government's official web portal to all federal, state and local government web resources and services.